Time;durP1;ratioP1;P1;durP2;ratioP2;P2;SDS_P1;SDS_P2;PMS_P1;PMS_P2;Temp;Humidity;BMP_temperature;BMP_pressure;BME280_temperature;BME280_humidity;BME280_pressure;Samples;Min_cycle;Max_cycle;Signal;HPM_P1;HPM_P2
2022/02/02 00:00:06;;;;;;;7.03;4.63;;;-1.50;96.30;;;;;;5014625;28;20120;-81
2022/02/02 00:02:41;;;;;;;6.90;4.57;;;-1.50;96.40;;;;;;5014834;28;20025;-81
2022/02/02 00:05:22;;;;;;;6.72;4.65;;;-1.50;96.50;;;;;;5024400;28;20057;-81
2022/02/02 00:07:55;;;;;;;6.60;4.43;;;-1.50;96.50;;;;;;5003608;28;20030;-79
2022/02/02 00:13:02;;;;;;;7.10;3.97;;;-1.60;96.50;;;;;;5012596;28;20109;-80
2022/02/02 00:23:20;;;;;;;7.20;5.20;;;-1.60;96.80;;;;;;5014107;28;20033;-79
2022/02/02 00:25:58;;;;;;;6.65;4.32;;;-1.60;97.00;;;;;;5024059;28;20040;-79
2022/02/02 00:28:28;;;;;;;8.30;5.10;;;-1.60;97.00;;;;;;5014823;28;20053;-81
2022/02/02 00:30:56;;;;;;;6.55;4.30;;;-1.60;97.10;;;;;;5030798;28;20061;-81
2022/02/02 00:33:27;;;;;;;9.50;6.95;;;-1.60;97.10;;;;;;5018667;28;20025;-80
2022/02/02 00:36:02;;;;;;;7.95;5.60;;;-1.60;97.20;;;;;;4994821;28;20045;-80
2022/02/02 00:38:28;;;;;;;7.38;5.00;;;-1.60;97.10;;;;;;5012237;28;20079;-83
2022/02/02 00:40:54;;;;;;;6.10;4.40;;;-1.60;97.10;;;;;;5012318;28;20033;-80
2022/02/02 00:43:20;;;;;;;9.57;5.22;;;-1.60;97.00;;;;;;5010853;28;20058;-81
2022/02/02 00:45:47;;;;;;;7.50;5.22;;;-1.70;97.00;;;;;;5012421;28;20061;-82
2022/02/02 00:48:16;;;;;;;7.13;5.88;;;-1.70;96.90;;;;;;5007465;28;20498;-79
2022/02/02 00:50:43;;;;;;;8.85;4.55;;;-1.70;96.90;;;;;;5031486;28;20121;-79
2022/02/02 00:53:10;;;;;;;9.27;6.30;;;-1.70;97.30;;;;;;5034099;28;20028;-80
2022/02/02 00:55:36;;;;;;;7.38;5.10;;;-1.70;97.10;;;;;;5030848;28;20113;-82
2022/02/02 00:58:03;;;;;;;7.32;4.97;;;-1.60;97.10;;;;;;5031923;28;20049;-79
2022/02/02 01:00:30;;;;;;;8.05;4.57;;;-1.60;97.10;;;;;;5030670;28;20026;-81
2022/02/02 01:02:56;;;;;;;6.57;4.15;;;-1.60;96.90;;;;;;5032382;28;20080;-81
2022/02/02 01:05:22;;;;;;;7.30;4.68;;;-1.70;96.80;;;;;;5018450;28;20030;-80
2022/02/02 01:10:23;;;;;;;6.78;4.90;;;-1.80;96.80;;;;;;5012029;28;20395;-80
2022/02/02 01:28:16;;;;;;;9.23;4.93;;;-1.80;96.50;;;;;;5011779;28;20114;-79
2022/02/02 01:30:42;;;;;;;7.43;4.90;;;-1.70;96.40;;;;;;5012861;28;20498;-79
2022/02/02 01:33:07;;;;;;;8.00;4.97;;;-1.80;96.30;;;;;;5015658;28;20089;-82
2022/02/02 01:35:33;;;;;;;6.00;4.03;;;-1.80;96.30;;;;;;4997724;28;20025;-79
2022/02/02 01:37:59;;;;;;;7.70;4.18;;;-1.80;96.20;;;;;;5015784;28;20521;-80
2022/02/02 01:40:30;;;;;;;5.20;3.85;;;-1.80;96.10;;;;;;5015220;28;20522;-79
2022/02/02 01:43:07;;;;;;;7.95;5.38;;;-1.80;96.00;;;;;;5015156;28;20022;-80
2022/02/02 01:45:38;;;;;;;7.65;5.68;;;-1.90;95.80;;;;;;5015535;28;20033;-81
2022/02/02 01:48:24;;;;;;;8.00;5.35;;;-1.90;95.80;;;;;;5016318;28;20038;-80
2022/02/02 01:51:07;;;;;;;6.53;4.43;;;-1.90;95.80;;;;;;5015688;28;20426;-79
2022/02/02 01:56:12;;;;;;;7.70;5.05;;;-1.80;95.90;;;;;;5037794;28;20030;-82
2022/02/02 01:58:52;;;;;;;7.28;4.90;;;-1.80;95.70;;;;;;5025149;28;20072;-77
2022/02/02 02:01:21;;;;;;;9.30;5.65;;;-1.80;95.60;;;;;;4997126;28;20034;-81
2022/02/02 02:03:48;;;;;;;8.55;5.10;;;-1.80;95.60;;;;;;4999476;28;20040;-81
2022/02/02 02:06:14;;;;;;;6.40;4.85;;;-1.80;95.40;;;;;;5023325;28;20057;-80
2022/02/02 02:08:41;;;;;;;6.25;5.10;;;-1.80;95.30;;;;;;5023274;28;20030;-80
2022/02/02 02:11:13;;;;;;;5.63;4.82;;;-1.80;95.30;;;;;;5038443;28;20029;-81
2022/02/02 02:14:03;;;;;;;6.97;4.95;;;-1.80;95.30;;;;;;5035211;28;20021;-80
2022/02/02 02:16:26;;;;;;;6.75;4.35;;;-1.80;95.30;;;;;;5034615;28;20133;-79
2022/02/02 02:18:53;;;;;;;6.85;4.72;;;-1.80;95.20;;;;;;5033534;28;20459;-80
2022/02/02 02:21:19;;;;;;;6.53;4.70;;;-1.80;95.20;;;;;;5034782;28;20026;-82
2022/02/02 02:23:47;;;;;;;10.27;4.82;;;-1.80;95.10;;;;;;5014788;28;20564;-81
2022/02/02 02:26:21;;;;;;;8.15;4.60;;;-1.80;95.00;;;;;;5016906;28;20022;-81
2022/02/02 02:58:43;;;;;;;7.03;4.32;;;-2.20;94.30;;;;;;5013869;28;20153;-79
2022/02/02 03:01:33;;;;;;;7.15;4.93;;;-2.30;94.60;;;;;;5009326;28;20568;-77
2022/02/02 04:06:04;;;;;;;7.93;4.47;;;-2.50;94.00;;;;;;5006799;28;20037;-80
2022/02/02 04:08:34;;;;;;;4.97;3.47;;;-2.60;93.80;;;;;;5005887;28;20120;-83
2022/02/02 04:11:01;;;;;;;6.75;3.95;;;-2.60;93.70;;;;;;5014373;28;20506;-79
2022/02/02 04:14:45;;;;;;;4.43;3.40;;;-2.60;93.70;;;;;;5022472;28;20022;-79
2022/02/02 04:54:55;;;;;;;7.88;4.70;;;-2.70;93.60;;;;;;5011971;28;19948;-79
2022/02/02 05:08:07;;;;;;;8.35;4.78;;;-2.90;93.50;;;;;;5017092;28;20030;-79
2022/02/02 05:53:23;;;;;;;7.40;5.25;;;-2.90;94.00;;;;;;5015671;28;20040;-80
2022/02/02 05:55:51;;;;;;;7.68;5.50;;;-2.80;94.00;;;;;;5015507;28;20018;-79
2022/02/02 05:58:26;;;;;;;8.63;4.85;;;-2.80;94.00;;;;;;5014974;28;20036;-79
2022/02/02 06:00:55;;;;;;;7.38;5.00;;;-2.80;94.00;;;;;;4997348;28;20476;-79
2022/02/02 06:03:29;;;;;;;7.88;4.78;;;-2.80;94.00;;;;;;5014812;28;20077;-79
2022/02/02 06:05:57;;;;;;;8.15;5.53;;;-2.80;94.00;;;;;;5029429;28;20029;-82
2022/02/02 06:08:24;;;;;;;9.27;5.88;;;-2.80;94.10;;;;;;5034392;28;20017;-81
2022/02/02 06:10:51;;;;;;;7.03;5.05;;;-2.80;94.30;;;;;;5016424;28;20037;-80
2022/02/02 06:13:18;;;;;;;7.93;5.25;;;-2.70;94.30;;;;;;5033069;28;20021;-80
2022/02/02 06:15:46;;;;;;;9.63;6.95;;;-2.80;94.30;;;;;;5016440;28;20049;-81
2022/02/02 06:18:12;;;;;;;6.88;4.95;;;-2.70;94.40;;;;;;5033245;28;20032;-81
2022/02/02 06:20:43;;;;;;;10.15;6.20;;;-2.70;94.40;;;;;;5034175;28;20029;-80
2022/02/02 06:23:15;;;;;;;13.98;7.22;;;-2.70;94.30;;;;;;5034459;28;20104;-80
2022/02/02 06:25:45;;;;;;;9.45;6.45;;;-2.80;94.40;;;;;;5016225;28;20033;-82
2022/02/02 06:28:21;;;;;;;12.32;7.03;;;-2.70;94.60;;;;;;5034358;28;20022;-83
2022/02/02 06:30:56;;;;;;;11.95;6.70;;;-2.70;94.60;;;;;;5033731;28;20050;-80
2022/02/02 06:33:30;;;;;;;13.90;7.18;;;-2.60;94.60;;;;;;5033862;28;20017;-82
2022/02/02 06:35:56;;;;;;;8.73;6.10;;;-2.60;94.60;;;;;;5030864;28;20147;-81
2022/02/02 06:38:23;;;;;;;10.43;5.80;;;-2.60;94.60;;;;;;4996582;28;20049;-80
2022/02/02 06:40:52;;;;;;;9.68;6.40;;;-2.60;94.60;;;;;;5014324;28;20457;-83
2022/02/02 06:43:19;;;;;;;11.98;6.72;;;-2.50;94.50;;;;;;5014193;28;20386;-80
2022/02/02 06:45:45;;;;;;;12.00;7.63;;;-2.60;94.50;;;;;;4996449;28;20034;-80
2022/02/02 06:48:11;;;;;;;10.52;7.22;;;-2.50;94.60;;;;;;5014477;28;20065;-81
2022/02/02 06:50:42;;;;;;;12.35;7.22;;;-2.60;94.40;;;;;;4996653;28;20494;-80
2022/02/02 06:53:35;;;;;;;11.27;6.40;;;-2.60;94.60;;;;;;4996644;28;20113;-80
2022/02/02 06:56:29;;;;;;;11.00;6.20;;;-2.60;94.60;;;;;;5013836;28;20036;-82
2022/02/02 06:59:24;;;;;;;10.15;7.45;;;-2.60;94.70;;;;;;5014414;28;20030;-81
2022/02/02 07:23:58;;;;;;;11.88;7.22;;;-2.30;94.40;;;;;;5014762;28;20562;-80
2022/02/02 07:29:13;;;;;;;11.68;5.45;;;-2.20;94.20;;;;;;5015808;28;20029;-80
2022/02/02 07:32:11;;;;;;;9.77;6.55;;;-2.20;94.00;;;;;;4995730;28;20456;-81
2022/02/02 07:37:33;;;;;;;8.13;4.70;;;-2.10;94.20;;;;;;5034585;28;20034;-81
2022/02/02 07:40:04;;;;;;;8.27;5.60;;;-2.10;94.20;;;;;;5033579;28;20054;-81
2022/02/02 07:42:31;;;;;;;8.88;5.68;;;-2.20;93.90;;;;;;5034611;28;20040;-79
2022/02/02 07:45:08;;;;;;;9.65;5.80;;;-2.20;93.80;;;;;;5037431;28;20343;-81
2022/02/02 07:47:38;;;;;;;9.40;5.47;;;-2.20;94.00;;;;;;5015296;28;20048;-81
2022/02/02 07:50:06;;;;;;;10.73;6.95;;;-2.20;93.90;;;;;;5014992;28;20414;-81
2022/02/02 07:52:32;;;;;;;;;;;-2.30;94.00;;;;;;5015523;28;20022;-80
2022/02/02 07:55:01;;;;;;;7.77;5.50;;;-2.30;94.20;;;;;;5014604;28;20330;-82
2022/02/02 07:57:28;;;;;;;8.43;5.22;;;-2.30;93.90;;;;;;5014680;28;20030;-81
2022/02/02 08:00:01;;;;;;;7.15;4.90;;;-2.30;94.10;;;;;;5033269;28;20413;-80
2022/02/02 08:02:43;;;;;;;8.18;4.45;;;-2.20;94.20;;;;;;5014667;28;20033;-81
2022/02/02 08:05:11;;;;;;;7.22;5.18;;;-2.20;93.90;;;;;;5032434;28;20044;-81
2022/02/02 08:07:43;;;;;;;8.45;4.93;;;-2.20;94.00;;;;;;5032646;28;20025;-82
2022/02/02 08:15:26;;;;;;;12.55;6.07;;;-1.90;93.70;;;;;;5023845;28;20038;-78
2022/02/02 08:17:54;;;;;;;7.82;5.20;;;-2.00;93.60;;;;;;5033273;28;20044;-80
2022/02/02 08:20:21;;;;;;;9.73;5.32;;;-1.90;93.60;;;;;;5032339;28;20052;-80
2022/02/02 08:22:46;;;;;;;8.63;7.10;;;-1.90;93.60;;;;;;5014661;28;20445;-80
2022/02/02 08:25:47;;;;;;;9.25;4.95;;;-1.90;93.60;;;;;;5014413;28;20133;-80
2022/02/02 08:28:06;;;;;;;8.95;6.05;;;-1.90;93.40;;;;;;5029876;28;20037;-81
2022/02/02 08:30:33;;;;;;;9.45;5.68;;;-1.90;93.50;;;;;;5032054;28;20045;-82
2022/02/02 08:33:01;;;;;;;8.75;5.40;;;-1.90;93.40;;;;;;5014421;28;20494;-81
2022/02/02 08:35:48;;;;;;;11.25;5.53;;;-1.90;93.40;;;;;;4995375;28;20030;-82
2022/02/02 08:41:00;;;;;;;9.18;6.00;;;-1.80;93.40;;;;;;5012515;28;20036;-81
2022/02/02 08:43:36;;;;;;;8.47;5.20;;;-1.80;93.20;;;;;;5012962;28;20026;-79
2022/02/02 08:46:07;;;;;;;12.05;6.65;;;-1.80;93.30;;;;;;4994858;28;20041;-81
2022/02/02 08:48:34;;;;;;;11.45;6.28;;;-1.70;93.30;;;;;;4992302;28;20510;-80
2022/02/02 08:51:06;;;;;;;7.20;4.53;;;-1.70;93.00;;;;;;5011903;28;20032;-82
2022/02/02 08:53:47;;;;;;;8.68;4.55;;;-1.70;92.80;;;;;;4994582;28;20030;-83
2022/02/02 08:56:37;;;;;;;8.82;5.40;;;-1.80;92.80;;;;;;4994486;28;20399;-79
2022/02/02 08:59:24;;;;;;;8.15;4.72;;;-1.80;93.00;;;;;;5010764;28;20034;-79
2022/02/02 09:01:52;;;;;;;8.77;5.47;;;-1.70;92.90;;;;;;5012272;28;20033;-83
2022/02/02 09:07:07;;;;;;;7.50;5.05;;;-1.60;92.70;;;;;;5012018;28;20025;-80
2022/02/02 09:23:30;;;;;;;6.40;4.28;;;-1.50;92.40;;;;;;5011759;28;20018;-81
2022/02/02 09:34:10;;;;;;;7.72;5.70;;;-1.30;92.10;;;;;;5011916;28;20084;-81
2022/02/02 09:36:40;;;;;;;9.88;5.60;;;-1.30;92.00;;;;;;5011827;28;20036;-81
2022/02/02 09:39:10;;;;;;;7.05;4.28;;;-1.30;92.00;;;;;;5011899;28;20394;-82
2022/02/02 09:41:44;;;;;;;6.45;4.68;;;-1.20;92.00;;;;;;4994163;28;20495;-81
2022/02/02 09:44:13;;;;;;;8.02;4.53;;;-1.20;91.90;;;;;;5011750;28;20029;-82
2022/02/02 09:52:09;;;;;;;10.95;5.50;;;-1.20;91.80;;;;;;4984490;28;20038;-82
2022/02/02 09:55:03;;;;;;;6.57;3.90;;;-1.30;91.70;;;;;;5015133;28;20030;-82
2022/02/02 09:57:49;;;;;;;5.15;3.33;;;-1.30;91.80;;;;;;5014708;28;20045;-81
2022/02/02 10:03:53;;;;;;;5.85;4.10;;;-1.30;91.30;;;;;;5018558;28;20041;-82
2022/02/02 10:06:20;;;;;;;10.13;3.95;;;-1.40;91.10;;;;;;5004936;28;20440;-80
2022/02/02 10:11:50;;;;;;;7.93;4.53;;;-1.30;91.20;;;;;;5014897;28;20026;-83
2022/02/02 10:14:27;;;;;;;11.10;5.60;;;-1.20;91.20;;;;;;5014695;28;20545;-78
2022/02/02 10:16:54;;;;;;;5.72;4.30;;;-1.00;91.30;;;;;;5013861;28;20464;-82
2022/02/02 10:19:22;;;;;;;4.53;3.85;;;-1.00;90.70;;;;;;4997559;28;20117;-81
2022/02/02 10:21:49;;;;;;;9.55;4.90;;;-1.00;90.30;;;;;;4997625;28;20026;-80
2022/02/02 10:24:16;;;;;;;6.22;4.40;;;-1.00;90.40;;;;;;4997573;28;20034;-79
2022/02/02 10:26:53;;;;;;;4.80;3.65;;;-0.80;90.60;;;;;;5015863;28;20022;-83
2022/02/02 10:29:19;;;;;;;7.05;4.97;;;-0.70;90.20;;;;;;5015002;28;20022;-82
2022/02/02 10:31:48;;;;;;;6.72;4.43;;;-0.60;90.30;;;;;;5013060;28;20054;-81
2022/02/02 10:34:16;;;;;;;6.63;3.95;;;-0.50;90.00;;;;;;5014451;28;20026;-82
2022/02/02 10:36:43;;;;;;;5.65;4.70;;;-0.50;89.30;;;;;;5014556;28;20057;-81
2022/02/02 10:39:14;;;;;;;8.90;5.18;;;-0.50;89.10;;;;;;4996591;28;20022;-81
2022/02/02 10:41:48;;;;;;;10.30;4.38;;;-0.50;89.10;;;;;;4996568;28;20113;-81
2022/02/02 10:44:33;;;;;;;7.22;4.97;;;-0.50;89.10;;;;;;5014566;28;20071;-81
2022/02/02 11:00:54;;;;;;;7.07;4.45;;;-0.90;88.40;;;;;;5014003;28;20058;-83
2022/02/02 11:09:00;;;;;;;8.70;5.55;;;-0.80;89.30;;;;;;5033752;28;20399;-82
2022/02/02 11:11:26;;;;;;;8.82;5.63;;;-0.80;88.70;;;;;;5032110;28;20082;-82
2022/02/02 11:14:01;;;;;;;5.40;3.83;;;-0.90;88.70;;;;;;5033809;28;20546;-82
2022/02/02 11:16:33;;;;;;;6.03;4.55;;;-0.90;88.70;;;;;;5032391;28;20028;-80
2022/02/02 11:19:16;;;;;;;8.38;4.40;;;-1.00;88.70;;;;;;5033808;28;20032;-82
2022/02/02 11:21:42;;;;;;;7.28;4.72;;;-1.00;89.40;;;;;;5016784;28;20018;-83
2022/02/02 11:24:16;;;;;;;8.27;5.55;;;-1.00;89.50;;;;;;5039016;28;20135;-81
2022/02/02 11:26:47;;;;;;;5.43;4.93;;;-1.00;90.00;;;;;;5040494;28;20021;-81
2022/02/02 11:29:40;;;;;;;7.60;5.13;;;-0.90;90.20;;;;;;5040178;28;20025;-81
2022/02/02 11:32:11;;;;;;;6.50;5.53;;;-0.70;90.20;;;;;;5018057;28;20034;-79
2022/02/02 11:34:40;;;;;;;7.38;4.57;;;-0.70;89.90;;;;;;5014371;28;20018;-79
2022/02/02 11:37:08;;;;;;;7.35;4.60;;;-0.70;89.70;;;;;;5016754;28;20103;-82
2022/02/02 11:40:02;;;;;;;7.25;4.40;;;-0.80;89.50;;;;;;5013208;28;20056;-81
2022/02/02 11:42:52;;;;;;;6.00;4.22;;;-0.80;89.20;;;;;;4995831;28;20026;-79
2022/02/02 11:46:00;;;;;;;5.78;3.67;;;-1.00;89.40;;;;;;4999713;28;20499;-79
2022/02/02 11:48:52;;;;;;;9.07;4.13;;;-1.00;89.70;;;;;;5012911;28;20026;-81
2022/02/02 11:51:41;;;;;;;5.10;3.78;;;-1.10;89.60;;;;;;5013093;28;20026;-81
2022/02/02 11:54:08;;;;;;;9.15;5.28;;;-1.10;89.70;;;;;;5013086;28;20025;-79
2022/02/02 11:59:46;;;;;;;9.27;4.50;;;-1.20;90.10;;;;;;4914591;29;19915;-85
2022/02/02 12:02:21;;;;;;;7.50;3.95;;;-1.20;90.00;;;;;;4914490;29;20039;-80
2022/02/02 12:04:59;;;;;;;4.88;4.05;;;-1.30;90.10;;;;;;4905808;29;20036;-81
2022/02/02 12:57:45;;;;;;;13.82;6.03;;;-1.20;90.40;;;;;;5032696;28;20109;-82
2022/02/02 13:00:20;;;;;;;7.18;5.45;;;-1.10;90.40;;;;;;5032331;28;20022;-81
2022/02/02 13:02:47;;;;;;;10.63;5.82;;;-1.10;90.40;;;;;;5031829;28;20029;-80
2022/02/02 13:05:14;;;;;;;7.65;4.90;;;-1.20;90.30;;;;;;5022701;28;20604;-80
2022/02/02 13:07:43;;;;;;;13.27;6.50;;;-1.20;90.40;;;;;;5012371;28;20057;-79
2022/02/02 13:10:20;;;;;;;11.48;5.78;;;-1.20;90.40;;;;;;5010833;28;20069;-81
2022/02/02 13:12:55;;;;;;;8.32;5.60;;;-1.20;90.40;;;;;;5012075;28;20117;-80
2022/02/02 13:18:19;;;;;;;9.95;5.88;;;-1.30;90.60;;;;;;5014110;28;20026;-80
2022/02/02 13:20:57;;;;;;;11.95;6.15;;;-1.30;90.80;;;;;;5014173;28;20037;-81
2022/02/02 13:29:16;;;;;;;8.70;6.25;;;-1.30;90.90;;;;;;5015769;28;20022;-82
2022/02/02 13:37:43;;;;;;;;;;;-1.40;91.00;;;;;;5015680;28;20119;-82
2022/02/02 13:42:56;;;;;;;;;;;-1.40;91.30;;;;;;5016526;28;20565;-79
2022/02/02 13:48:18;;;;;;;;;;;-1.40;91.00;;;;;;5016256;28;20356;-80
2022/02/02 14:09:37;;;;;;;9.60;5.75;;;-1.50;91.30;;;;;;5015653;28;20021;-80
2022/02/02 14:31:11;;;;;;;7.47;4.70;;;-1.50;91.50;;;;;;5017157;28;20062;-83
2022/02/02 14:33:42;;;;;;;10.75;6.60;;;-1.50;91.60;;;;;;5016525;28;20486;-80
2022/02/02 14:36:10;;;;;;;10.32;6.13;;;-1.50;91.60;;;;;;4997044;28;20022;-80
2022/02/02 14:38:43;;;;;;;10.18;5.82;;;-1.60;91.50;;;;;;4996134;28;20069;-80
2022/02/02 14:44:02;;;;;;;5.88;4.63;;;-1.50;91.30;;;;;;4973647;28;20852;-81
2022/02/02 14:46:36;;;;;;;9.32;5.57;;;-1.60;91.20;;;;;;5014248;28;20030;-80
2022/02/02 14:49:20;;;;;;;9.32;5.68;;;-1.60;91.30;;;;;;5015020;28;20064;-81
2022/02/02 14:51:59;;;;;;;5.75;4.45;;;-1.50;91.30;;;;;;5019068;28;20033;-80
2022/02/02 15:05:22;;;;;;;8.15;5.68;;;-1.50;91.00;;;;;;5014224;28;20483;-81
2022/02/02 15:29:56;;;;;;;7.63;4.63;;;-1.30;90.90;;;;;;4933729;29;20059;-80
2022/02/02 15:32:22;;;;;;;8.88;5.10;;;-1.30;90.50;;;;;;5008700;28;20112;-80
2022/02/02 15:34:52;;;;;;;8.32;5.35;;;-1.40;90.50;;;;;;4995935;28;20344;-81
2022/02/02 15:37:24;;;;;;;9.80;6.15;;;-1.40;90.70;;;;;;4996151;28;20033;-80
2022/02/02 15:40:11;;;;;;;10.60;5.57;;;-1.40;90.80;;;;;;4995629;28;20479;-80
2022/02/02 15:56:57;;;;;;;9.57;5.63;;;-1.40;90.40;;;;;;5013544;28;20092;-82
2022/02/02 15:58:56;;;;;;;7.55;5.45;;;-1.40;90.40;;;;;;5013000;28;20025;-79
2022/02/02 16:04:12;;;;;;;14.35;8.57;;;-1.60;90.20;;;;;;5012885;28;20512;-84
2022/02/02 16:06:38;;;;;;;9.68;5.82;;;-1.70;90.20;;;;;;5011005;28;20390;-81
2022/02/02 16:09:27;;;;;;;7.13;4.90;;;-1.80;90.20;;;;;;5012905;28;20062;-82
2022/02/02 16:12:05;;;;;;;10.60;5.68;;;-2.00;90.20;;;;;;5012560;28;20497;-80
2022/02/02 16:14:38;;;;;;;7.75;4.70;;;-2.00;90.20;;;;;;5012345;28;20376;-79
2022/02/02 16:17:16;;;;;;;5.95;4.60;;;-2.10;90.10;;;;;;5012294;28;20418;-81
2022/02/02 16:38:26;;;;;;;8.77;5.25;;;-2.40;90.60;;;;;;5012437;28;20022;-82
2022/02/02 16:40:52;;;;;;;6.22;4.43;;;-2.40;90.70;;;;;;4994841;28;20049;-79
2022/02/02 16:43:20;;;;;;;10.13;5.43;;;-2.40;90.80;;;;;;5011977;28;20018;-80
2022/02/02 16:45:52;;;;;;;5.47;3.95;;;-2.50;91.00;;;;;;5012361;28;20042;-82
2022/02/02 16:48:19;;;;;;;8.98;4.72;;;-2.50;91.10;;;;;;4994388;28;20030;-82
2022/02/02 16:50:48;;;;;;;9.60;6.45;;;-2.50;91.30;;;;;;4994457;28;20113;-83
2022/02/02 16:56:04;;;;;;;9.80;6.75;;;-2.50;91.60;;;;;;5012246;28;20033;-80
2022/02/02 17:31:01;;;;;;;12.50;7.95;;;-2.20;93.10;;;;;;4967226;28;20058;-82
2022/02/02 17:33:32;;;;;;;9.88;6.80;;;-2.20;93.20;;;;;;5012281;28;20021;-83
2022/02/02 17:39:14;;;;;;;8.48;6.63;;;-2.20;93.20;;;;;;5002536;28;20042;-82
2022/02/02 18:21:18;;;;;;;9.88;6.53;;;-2.20;93.30;;;;;;4995344;28;20053;-82
2022/02/02 18:26:39;;;;;;;12.55;8.52;;;-2.20;93.30;;;;;;4995336;28;20058;-83
2022/02/02 18:29:14;;;;;;;11.15;7.60;;;-2.20;93.30;;;;;;4995872;28;20015;-80
2022/02/02 18:32:36;;;;;;;10.27;8.10;;;-2.10;93.30;;;;;;5019048;28;20048;-82
2022/02/02 18:34:45;;;;;;;9.40;6.38;;;-2.10;93.20;;;;;;5021004;28;20038;-82
2022/02/02 18:50:07;;;;;;;16.20;6.90;;;-2.20;93.10;;;;;;5014600;28;20026;-82
2022/02/02 19:40:18;;;;;;;14.48;8.73;;;-2.80;94.20;;;;;;5016559;28;20475;-81
2022/02/02 20:01:50;;;;;;;15.30;8.68;;;-2.90;94.30;;;;;;5013133;28;20121;-84
2022/02/02 20:04:58;;;;;;;14.82;9.15;;;-3.00;94.30;;;;;;5014457;28;20045;-85
2022/02/02 20:07:24;;;;;;;20.25;11.70;;;-3.00;94.30;;;;;;5030847;28;20037;-84
2022/02/02 20:10:25;;;;;;;15.23;9.73;;;-3.00;94.30;;;;;;5031929;28;20018;-84
2022/02/02 20:12:50;;;;;;;15.55;7.63;;;-3.00;94.40;;;;;;5037727;28;20075;-85
2022/02/02 20:15:16;;;;;;;15.30;8.57;;;-2.90;94.40;;;;;;5037209;28;20041;-83
2022/02/02 20:17:43;;;;;;;16.60;9.88;;;-3.00;94.30;;;;;;5011970;28;20061;-83
2022/02/02 20:20:19;;;;;;;15.45;9.63;;;-2.90;94.40;;;;;;5027504;28;20017;-82
2022/02/02 20:22:46;;;;;;;20.20;10.05;;;-2.90;94.30;;;;;;5035125;28;20025;-82
2022/02/02 20:25:13;;;;;;;14.17;9.03;;;-2.90;94.40;;;;;;5027818;28;20038;-82
2022/02/02 20:27:40;;;;;;;13.38;9.43;;;-2.90;94.40;;;;;;5011969;28;20026;-82
2022/02/02 20:30:09;;;;;;;18.67;9.98;;;-3.00;94.30;;;;;;5012559;28;20049;-80
2022/02/02 20:32:35;;;;;;;15.02;8.23;;;-2.90;94.20;;;;;;5012079;28;20025;-79
2022/02/02 20:35:01;;;;;;;13.00;8.57;;;-3.00;94.20;;;;;;5018574;28;20384;-78
2022/02/02 20:37:28;;;;;;;11.45;7.45;;;-3.00;94.20;;;;;;4994914;28;20029;-78
2022/02/02 20:39:56;;;;;;;15.50;9.65;;;-3.00;94.20;;;;;;5012822;28;20541;-81
2022/02/02 20:42:33;;;;;;;15.25;9.98;;;-3.00;94.20;;;;;;5011767;28;20422;-81
2022/02/02 20:45:15;;;;;;;;;;;-3.00;94.20;;;;;;5011810;28;20108;-78
2022/02/02 21:09:51;;;;;;;18.75;9.57;;;-3.00;94.00;;;;;;5012209;28;20018;-80
2022/02/02 21:15:10;;;;;;;18.75;8.93;;;-3.00;94.10;;;;;;5012918;28;20054;-85
2022/02/02 21:17:37;;;;;;;15.98;9.57;;;-2.90;94.10;;;;;;5014680;28;20022;-84
2022/02/02 21:22:36;;;;;;;12.63;10.68;;;-2.90;94.00;;;;;;5013790;28;20026;-81
2022/02/02 21:25:19;;;;;;;15.05;9.13;;;-2.80;93.90;;;;;;4996545;28;20526;-81
2022/02/02 21:27:48;;;;;;;14.60;9.30;;;-2.80;93.90;;;;;;5012148;28;20386;-82
2022/02/02 21:30:14;;;;;;;19.67;10.52;;;-2.80;93.80;;;;;;5012378;28;20049;-83
2022/02/02 21:32:40;;;;;;;18.33;9.65;;;-2.70;93.70;;;;;;5008374;28;20487;-80
2022/02/02 21:35:07;;;;;;;14.40;8.65;;;-2.70;93.60;;;;;;5031814;28;20056;-80
2022/02/02 21:37:36;;;;;;;17.10;9.05;;;-2.70;93.50;;;;;;5013824;28;20512;-79
2022/02/02 21:40:16;;;;;;;20.45;10.25;;;-2.70;93.40;;;;;;5030516;28;20545;-79
2022/02/02 21:42:44;;;;;;;12.80;8.75;;;-2.70;93.30;;;;;;5031797;28;20390;-79
2022/02/02 21:45:10;;;;;;;;;;;-2.80;93.30;;;;;;5032057;28;20486;-78
2022/02/02 21:47:36;;;;;;;14.95;9.40;;;-2.80;93.30;;;;;;5033732;28;19959;-82
2022/02/02 21:50:06;;;;;;;15.13;9.35;;;-2.80;93.20;;;;;;5035722;28;20084;-81
2022/02/02 21:52:33;;;;;;;17.50;7.63;;;-2.80;93.20;;;;;;5039330;28;20437;-84
2022/02/02 21:54:59;;;;;;;14.57;7.80;;;-2.80;93.20;;;;;;5020971;28;20175;-84
2022/02/02 21:57:24;;;;;;;12.77;7.88;;;-2.80;93.20;;;;;;5035294;28;20026;-81
2022/02/02 21:59:50;;;;;;;16.67;8.75;;;-2.80;93.10;;;;;;5035473;28;20021;-82
2022/02/02 22:02:16;;;;;;;11.65;7.35;;;-2.90;93.00;;;;;;5038690;28;20612;-81
2022/02/02 22:04:42;;;;;;;12.93;8.40;;;-2.90;93.00;;;;;;5024055;28;20037;-80
2022/02/02 22:07:08;;;;;;;15.20;8.52;;;-2.90;93.00;;;;;;5035228;28;20021;-80
2022/02/02 22:09:33;;;;;;;14.52;8.40;;;-2.90;93.00;;;;;;5035050;28;20536;-83
2022/02/02 22:11:59;;;;;;;16.52;8.70;;;-3.00;93.30;;;;;;5034949;28;20024;-87
2022/02/02 22:14:26;;;;;;;14.05;7.70;;;-3.00;93.00;;;;;;5020050;28;20029;-80
2022/02/02 22:16:53;;;;;;;15.43;9.80;;;-3.10;93.10;;;;;;5015743;28;20014;-84
2022/02/02 22:19:19;;;;;;;13.48;9.27;;;-3.10;93.20;;;;;;5015714;28;20036;-82
2022/02/02 22:21:45;;;;;;;14.75;9.73;;;-3.10;93.20;;;;;;5019879;28;20036;-83
2022/02/02 22:24:12;;;;;;;15.32;9.32;;;-3.20;93.10;;;;;;5014252;28;20030;-82
2022/02/02 22:26:38;;;;;;;14.35;8.85;;;-3.20;93.10;;;;;;5023304;28;20045;-83
2022/02/02 22:29:04;;;;;;;18.90;9.98;;;-3.20;93.10;;;;;;5018221;28;20115;-83
2022/02/02 22:31:30;;;;;;;19.45;9.20;;;-3.30;93.10;;;;;;5028965;28;20543;-84
2022/02/02 22:33:56;;;;;;;17.20;9.30;;;-3.30;93.20;;;;;;5025425;28;20463;-84
2022/02/02 22:36:22;;;;;;;15.55;9.52;;;-3.30;93.30;;;;;;5007909;28;20032;-84
2022/02/02 22:38:48;;;;;;;19.30;10.47;;;-3.30;93.30;;;;;;5018372;28;20109;-84
2022/02/02 22:41:14;;;;;;;15.50;10.00;;;-3.40;93.30;;;;;;5014763;28;20349;-82
2022/02/02 22:43:50;;;;;;;14.20;8.90;;;-3.40;93.30;;;;;;5015071;28;20066;-82
2022/02/02 22:46:21;;;;;;;15.40;8.75;;;-3.40;93.30;;;;;;4999066;28;20026;-84
2022/02/02 22:48:47;;;;;;;20.30;11.80;;;-3.40;93.40;;;;;;5014763;28;20018;-83
2022/02/02 22:51:13;;;;;;;12.05;8.23;;;-3.40;93.50;;;;;;5003262;28;20025;-81
2022/02/02 22:53:40;;;;;;;15.13;9.18;;;-3.40;93.50;;;;;;5019894;28;20026;-81
2022/02/02 22:56:05;;;;;;;16.25;9.07;;;-3.50;93.50;;;;;;5018559;28;20026;-84
2022/02/02 22:58:31;;;;;;;15.55;9.35;;;-3.50;93.60;;;;;;5018708;28;20048;-82
2022/02/02 23:00:57;;;;;;;13.75;6.82;;;-3.50;93.60;;;;;;4999813;28;20076;-83
2022/02/02 23:03:24;;;;;;;18.13;10.75;;;-3.50;93.60;;;;;;5015389;28;20117;-84
2022/02/02 23:06:00;;;;;;;16.83;9.95;;;-3.50;93.80;;;;;;5014951;28;20479;-82
2022/02/02 23:08:28;;;;;;;16.08;10.63;;;-3.60;93.80;;;;;;5014455;28;20026;-83
2022/02/02 23:10:55;;;;;;;15.43;10.25;;;-3.60;93.80;;;;;;5015019;28;20105;-83
2022/02/02 23:13:21;;;;;;;21.42;10.02;;;-3.60;93.90;;;;;;4999130;28;20069;-83
2022/02/02 23:18:19;;;;;;;16.95;10.20;;;-3.60;94.00;;;;;;5019682;28;20048;-83
2022/02/02 23:20:49;;;;;;;18.70;10.60;;;-3.60;94.10;;;;;;5017051;28;20026;-84
2022/02/02 23:23:25;;;;;;;17.73;10.40;;;-3.60;94.20;;;;;;5002642;28;20057;-81
2022/02/02 23:25:53;;;;;;;16.55;11.30;;;-3.70;94.30;;;;;;5015138;28;20030;-82
2022/02/02 23:28:24;;;;;;;22.67;11.57;;;-3.70;94.30;;;;;;5015595;28;20025;-84
2022/02/02 23:30:51;;;;;;;18.05;8.30;;;-3.70;94.40;;;;;;5015082;28;20042;-82
2022/02/02 23:33:17;;;;;;;15.93;10.57;;;-3.70;94.50;;;;;;4996448;28;20040;-82
2022/02/02 23:35:44;;;;;;;21.73;12.82;;;-3.80;94.60;;;;;;4996282;28;20117;-82
2022/02/02 23:38:11;;;;;;;17.17;11.68;;;-3.80;94.80;;;;;;5013843;28;20018;-83
2022/02/02 23:43:26;;;;;;;22.02;11.82;;;-3.80;94.90;;;;;;4987611;28;20041;-83
2022/02/02 23:45:57;;;;;;;23.33;11.38;;;-3.80;95.00;;;;;;5033688;28;20033;-83
2022/02/02 23:48:32;;;;;;;24.45;12.88;;;-3.80;95.00;;;;;;5035029;28;20044;-79
2022/02/02 23:51:06;;;;;;;22.58;13.18;;;-3.90;95.10;;;;;;5004357;28;20048;-83
2022/02/02 23:53:39;;;;;;;28.33;15.25;;;-3.90;95.10;;;;;;5019291;28;20022;-81
2022/02/02 23:56:20;;;;;;;24.13;13.43;;;-3.90;95.20;;;;;;5013592;28;20018;-83
2022/02/02 23:58:51;;;;;;;24.30;12.60;;;-3.90;95.20;;;;;;5012110;28;20169;-82
